Clock
 METAR AND TAF INFORMATION
METAR FOR MDSD
ADDS - METARS form results

(1413 UTC 22 August 2019)
Data provider http://aviationweather.gov/metar/data/
 
METAR text: MDSD 221400Z 06008KT 9999 FEW020 SCT080 29/23 Q1016
Conditions at: MDSD (CAUCEDO/DE LAS , DO) observed 1400 UTC 22 August 2019
Temperature: 29.0°C (84°F)
Dewpoint: 23.0°C (73°F) [RH = 70%]
Pressure (altimeter): 30.00 inches Hg (1016.0 mb)
Winds: from the ENE (60 degrees) at 9 MPH (8 knots; 4.1 m/s)
Visibility: 6 or more miles (10+ km)
Ceiling: at least 12,000 feet AGL
Clouds: few clouds at 2000 feet AGL
scattered clouds at 8000 feet AGL
Weather: no significant weather observed at this time

 AIRPORT MAP

 RUNWAY INFORMATION
Runway 17 Runway length 11000 ft Runway width 200 ft
Runway elevation 39 ft Runway displaced threshold 0 ft Runway heading 161
Runway 35 Runway length 11000 ft Runway width 200 ft
Runway elevation 58 ft Runway displaced threshold 0 ft Runway heading 341

 AIRPORT FREQUENCIES
Type APP Name APP Frequency 119.3 MHZ
Type ATIS Name ATIS Frequency 126.2 MHZ
Type FCC Name SANTO DOMI Frequency 126.9 MHZ
Type FSS Name FSS Frequency 122 MHZ
Type GND Name GND Frequency 121.9 MHZ
Type TWR Name TWR Frequency 118.1 MHZ

 AIRPORT NEAR NAVIGATION AIDS
Type VOR-DME Name Punta Caucedo Frequency 114700 KHZ
Type NDB Name Guerra Frequency 200 KHZ